KISQ/ISQ METAR and TAF weather

Enter ICAO airport designator
Station Type Date Time Source
KISQ METAR 2022/05/26 05:55 UTC NOAA

KISQ 260555Z AUTO 09006KT 7SM -RA OVC004 11/10 A2976 RMK AO2 60083 T01100102 10115 20104 P0021


Station Type Date Time Source
KISQ Decoded METAR 2022/05/26 05:55 UTC NOAA

Manistique, Schoolcraft County Airport, MI, United States (KISQ) 45-58-29N 086-10-19W
May 26, 2022 - 01:55 AM EDT / 2022.05.26 0555 UTC
Wind: from the E (090 degrees) at 7 MPH (6 KT):0
Visibility: 7 mile(s):0
Sky conditions: overcast
Weather: light rain
Precipitation last hour: 0.21 inches
Temperature: 51.8 F (11.0 C)
Dew Point: 50.4 F (10.2 C)
Relative Humidity: 94%
Pressure (altimeter): 29.76 in. Hg (1007 hPa)
ob: KISQ 260555Z AUTO 09006KT 7SM -RA OVC004 11/10 A2976 RMK AO2 60083 T01100102 10115 20104 P0021
cycle: 6

Station Type Date Time Source
KISQ TAF UTC NOAA

Error!

Example: see airport list